RRR83 EGVN-EGJJ
Flight info
| Callsign | RRR83 |
|---|---|
| Flight time | N/A |
| Altitude | 10000 |
| Route | CPT Y321 PEPIS Q41 ORTAC |
| Aircraft | A400/H-SDE2E3FGHIJ4J5M1RWXY/LB1D1 |
Departure
| Time | 2026-05-04 20:03 |
|---|---|
| Airport | RAF Brize Norton (EGVN) |
Arrival
| Time | N/A |
|---|---|
| Airport | Jersey Airport (EGJJ) |
| Time | Latitude | Longitude | Altitude | Speed | Heading |
|---|---|---|---|---|---|
| 2026-05-04 19:54 | 51.75844 | -1.57213 | 273 ft | 0 kts | 288° |
| 2026-05-04 19:56 | 51.75845 | -1.57214 | 273 ft | 1 kts | 288° |
| 2026-05-04 19:56 | 51.75854 | -1.57247 | 273 ft | 5 kts | 305° |
| 2026-05-04 19:56 | 51.75893 | -1.57278 | 273 ft | 7 kts | 337° |
| 2026-05-04 19:57 | 51.75931 | -1.57399 | 276 ft | 18 kts | 276° |
| 2026-05-04 19:57 | 51.75859 | -1.57536 | 274 ft | 18 kts | 197° |
| 2026-05-04 19:57 | 51.75736 | -1.57601 | 274 ft | 19 kts | 199° |
| 2026-05-04 19:57 | 51.75605 | -1.57671 | 274 ft | 20 kts | 198° |
| 2026-05-04 19:58 | 51.75475 | -1.57768 | 274 ft | 21 kts | 205° |
| 2026-05-04 19:58 | 51.75347 | -1.57879 | 276 ft | 21 kts | 207° |
| 2026-05-04 19:58 | 51.75219 | -1.57989 | 274 ft | 21 kts | 207° |
| 2026-05-04 19:58 | 51.75089 | -1.58102 | 274 ft | 22 kts | 208° |
| 2026-05-04 19:59 | 51.74954 | -1.58217 | 274 ft | 22 kts | 208° |
| 2026-05-04 19:59 | 51.74820 | -1.58332 | 274 ft | 22 kts | 207° |
| 2026-05-04 19:59 | 51.74690 | -1.58446 | 274 ft | 19 kts | 215° |
| 2026-05-04 19:59 | 51.74627 | -1.58629 | 275 ft | 19 kts | 252° |
| 2026-05-04 20:00 | 51.74590 | -1.58835 | 276 ft | 20 kts | 253° |
| 2026-05-04 20:00 | 51.74552 | -1.59052 | 274 ft | 20 kts | 255° |
| 2026-05-04 20:00 | 51.74511 | -1.59270 | 274 ft | 20 kts | 250° |
| 2026-05-04 20:00 | 51.74472 | -1.59488 | 275 ft | 20 kts | 254° |
| 2026-05-04 20:01 | 51.74430 | -1.59697 | 278 ft | 20 kts | 253° |
| 2026-05-04 20:01 | 51.74440 | -1.59864 | 274 ft | 15 kts | 298° |
| 2026-05-04 20:01 | 51.74491 | -1.60009 | 274 ft | 15 kts | 309° |
| 2026-05-04 20:01 | 51.74577 | -1.60084 | 275 ft | 13 kts | 342° |
| 2026-05-04 20:02 | 51.74659 | -1.60075 | 278 ft | 12 kts | 36° |
| 2026-05-04 20:02 | 51.74705 | -1.59907 | 272 ft | 32 kts | 72° |
| 2026-05-04 20:02 | 51.74850 | -1.59105 | 275 ft | 120 kts | 74° |
| 2026-05-04 20:02 | 51.75153 | -1.57526 | 459 ft | 164 kts | 72° |
| 2026-05-04 20:03 | 51.75704 | -1.55887 | 1181 ft | 170 kts | 43° |
| 2026-05-04 20:03 | 51.76825 | -1.55141 | 1882 ft | 192 kts | 4° |
| 2026-05-04 20:03 | 51.78231 | -1.55702 | 2211 ft | 231 kts | 330° |
| 2026-05-04 20:03 | 51.79386 | -1.57678 | 2701 ft | 255 kts | 297° |
| 2026-05-04 20:04 | 51.79777 | -1.60491 | 3542 ft | 261 kts | 268° |
| 2026-05-04 20:04 | 51.79559 | -1.63433 | 4481 ft | 266 kts | 256° |
| 2026-05-04 20:04 | 51.78829 | -1.66178 | 5489 ft | 268 kts | 233° |
| 2026-05-04 20:04 | 51.77408 | -1.68079 | 6586 ft | 268 kts | 202° |
| 2026-05-04 20:05 | 51.75586 | -1.68497 | 7691 ft | 267 kts | 171° |
| 2026-05-04 20:05 | 51.73870 | -1.67337 | 8756 ft | 273 kts | 146° |
| 2026-05-04 20:05 | 51.72407 | -1.65382 | 9538 ft | 280 kts | 137° |
| 2026-05-04 20:05 | 51.71085 | -1.63064 | 9932 ft | 282 kts | 131° |
| 2026-05-04 20:06 | 51.69848 | -1.60596 | 10022 ft | 284 kts | 130° |
| 2026-05-04 20:06 | 51.68590 | -1.58002 | 10009 ft | 307 kts | 130° |
| 2026-05-04 20:06 | 51.67200 | -1.55201 | 10011 ft | 328 kts | 130° |
| 2026-05-04 20:06 | 51.65732 | -1.52344 | 10025 ft | 333 kts | 131° |
| 2026-05-04 20:07 | 51.64221 | -1.49490 | 10029 ft | 335 kts | 131° |
| 2026-05-04 20:07 | 51.62692 | -1.46656 | 10031 ft | 335 kts | 132° |
| 2026-05-04 20:07 | 51.61157 | -1.43840 | 10009 ft | 335 kts | 132° |
| 2026-05-04 20:07 | 51.59613 | -1.41023 | 10025 ft | 336 kts | 133° |
| 2026-05-04 20:08 | 51.58063 | -1.38197 | 10021 ft | 336 kts | 133° |
| 2026-05-04 20:08 | 51.56516 | -1.35374 | 10016 ft | 336 kts | 133° |
| 2026-05-04 20:08 | 51.54967 | -1.32549 | 10018 ft | 337 kts | 133° |
| 2026-05-04 20:08 | 51.53418 | -1.29724 | 10025 ft | 337 kts | 133° |
| 2026-05-04 20:09 | 51.51863 | -1.26897 | 10023 ft | 337 kts | 134° |
| 2026-05-04 20:09 | 51.50130 | -1.24460 | 10017 ft | 335 kts | 147° |
| 2026-05-04 20:09 | 51.48039 | -1.22854 | 10017 ft | 332 kts | 165° |
| 2026-05-04 20:09 | 51.45766 | -1.22260 | 10014 ft | 331 kts | 176° |
| 2026-05-04 20:10 | 51.43464 | -1.22141 | 10014 ft | 331 kts | 181° |
| 2026-05-04 20:10 | 51.41159 | -1.22281 | 10019 ft | 330 kts | 184° |
| 2026-05-04 20:10 | 51.38865 | -1.22535 | 10010 ft | 330 kts | 185° |
| 2026-05-04 20:10 | 51.36573 | -1.22818 | 10010 ft | 331 kts | 185° |
| 2026-05-04 20:11 | 51.34274 | -1.23088 | 10012 ft | 331 kts | 185° |
| 2026-05-04 20:11 | 51.31984 | -1.23330 | 10002 ft | 330 kts | 184° |
| 2026-05-04 20:11 | 51.29711 | -1.23544 | 10003 ft | 330 kts | 184° |
| 2026-05-04 20:11 | 51.27418 | -1.23743 | 9993 ft | 330 kts | 184° |
| 2026-05-04 20:12 | 51.25127 | -1.23931 | 10010 ft | 330 kts | 184° |
| 2026-05-04 20:12 | 51.22828 | -1.24115 | 10023 ft | 330 kts | 184° |
| 2026-05-04 20:12 | 51.20540 | -1.24370 | 10018 ft | 329 kts | 189° |
| 2026-05-04 20:12 | 51.19045 | -1.24792 | 10023 ft | 329 kts | 191° |
| 2026-05-04 20:13 | 51.16047 | -1.25842 | 10020 ft | 329 kts | 194° |
| 2026-05-04 20:13 | 51.14576 | -1.26426 | 10017 ft | 329 kts | 195° |
| 2026-05-04 20:13 | 51.12356 | -1.27353 | 10017 ft | 329 kts | 195° |
| 2026-05-04 20:13 | 51.10150 | -1.28300 | 10010 ft | 329 kts | 195° |
| 2026-05-04 20:14 | 51.07939 | -1.29255 | 10019 ft | 329 kts | 195° |
| 2026-05-04 20:14 | 51.05728 | -1.30204 | 10018 ft | 329 kts | 195° |
| 2026-05-04 20:14 | 51.03511 | -1.31148 | 10018 ft | 329 kts | 195° |
| 2026-05-04 20:14 | 51.01295 | -1.32084 | 10024 ft | 329 kts | 195° |
| 2026-05-04 20:15 | 50.99083 | -1.33013 | 10018 ft | 329 kts | 195° |
| 2026-05-04 20:15 | 50.96868 | -1.33948 | 10025 ft | 329 kts | 197° |
| 2026-05-04 20:15 | 50.94717 | -1.35187 | 10023 ft | 329 kts | 201° |
| 2026-05-04 20:15 | 50.92616 | -1.36532 | 10025 ft | 329 kts | 203° |
| 2026-05-04 20:16 | 50.90514 | -1.37961 | 10015 ft | 329 kts | 204° |
| 2026-05-04 20:16 | 50.88423 | -1.39430 | 10017 ft | 329 kts | 204° |
| 2026-05-04 20:16 | 50.86330 | -1.40918 | 10026 ft | 329 kts | 204° |
| 2026-05-04 20:16 | 50.84243 | -1.42404 | 10012 ft | 329 kts | 204° |
| 2026-05-04 20:17 | 50.82154 | -1.43886 | 10020 ft | 329 kts | 204° |
| 2026-05-04 20:17 | 50.80065 | -1.45362 | 10016 ft | 329 kts | 204° |
| 2026-05-04 20:17 | 50.77974 | -1.46831 | 10016 ft | 329 kts | 204° |
| 2026-05-04 20:17 | 50.75879 | -1.48300 | 10016 ft | 329 kts | 204° |
| 2026-05-04 20:18 | 50.73812 | -1.49745 | 10012 ft | 329 kts | 204° |
| 2026-05-04 20:18 | 50.71718 | -1.51206 | 10015 ft | 329 kts | 204° |
| 2026-05-04 20:18 | 50.69619 | -1.52669 | 10019 ft | 329 kts | 204° |
| 2026-05-04 20:18 | 50.67525 | -1.54128 | 10020 ft | 329 kts | 204° |
| 2026-05-04 20:19 | 50.65420 | -1.55593 | 10004 ft | 329 kts | 204° |
| 2026-05-04 20:19 | 50.63325 | -1.57050 | 10006 ft | 329 kts | 203° |
| 2026-05-04 20:19 | 50.61233 | -1.58504 | 10012 ft | 330 kts | 203° |
| 2026-05-04 20:19 | 50.59129 | -1.59965 | 10014 ft | 330 kts | 203° |
| 2026-05-04 20:20 | 50.57028 | -1.61421 | 10020 ft | 330 kts | 203° |
| 2026-05-04 20:20 | 50.54954 | -1.62859 | 10009 ft | 330 kts | 203° |
| 2026-05-04 20:20 | 50.52853 | -1.64313 | 10006 ft | 330 kts | 203° |
| 2026-05-04 20:20 | 50.50752 | -1.65766 | 10008 ft | 330 kts | 203° |
| 2026-05-04 20:21 | 50.48651 | -1.67218 | 10008 ft | 330 kts | 203° |
| 2026-05-04 20:21 | 50.46550 | -1.68669 | 10022 ft | 330 kts | 203° |
| 2026-05-04 20:21 | 50.42340 | -1.71570 | 10016 ft | 330 kts | 203° |
| 2026-05-04 20:22 | 50.40233 | -1.73020 | 10010 ft | 330 kts | 202° |
| 2026-05-04 20:22 | 50.38134 | -1.74463 | 10012 ft | 330 kts | 202° |
| 2026-05-04 20:22 | 50.36024 | -1.75912 | 10010 ft | 330 kts | 202° |
| 2026-05-04 20:22 | 50.33918 | -1.77357 | 10010 ft | 330 kts | 202° |
| 2026-05-04 20:23 | 50.31812 | -1.78800 | 10023 ft | 330 kts | 202° |
| 2026-05-04 20:23 | 50.29705 | -1.80243 | 10020 ft | 330 kts | 202° |
| 2026-05-04 20:23 | 50.27599 | -1.81684 | 10018 ft | 330 kts | 202° |
| 2026-05-04 20:23 | 50.25492 | -1.83123 | 10006 ft | 330 kts | 202° |
| 2026-05-04 20:24 | 50.23386 | -1.84562 | 10012 ft | 330 kts | 202° |
| 2026-05-04 20:24 | 50.21278 | -1.86000 | 10011 ft | 330 kts | 202° |
| 2026-05-04 20:24 | 50.19176 | -1.87432 | 10009 ft | 330 kts | 202° |
| 2026-05-04 20:24 | 50.17074 | -1.88863 | 10008 ft | 330 kts | 202° |
| 2026-05-04 20:25 | 50.14991 | -1.90280 | 10009 ft | 330 kts | 202° |
| 2026-05-04 20:25 | 50.12883 | -1.91712 | 10010 ft | 331 kts | 202° |
| 2026-05-04 20:25 | 50.10775 | -1.93143 | 10009 ft | 331 kts | 202° |
| 2026-05-04 20:25 | 50.08666 | -1.94574 | 10010 ft | 331 kts | 202° |
| 2026-05-04 20:26 | 50.06552 | -1.96006 | 10006 ft | 331 kts | 202° |
| 2026-05-04 20:26 | 50.04448 | -1.97431 | 10009 ft | 331 kts | 202° |
| 2026-05-04 20:26 | 50.02333 | -1.98861 | 10013 ft | 331 kts | 202° |
| 2026-05-04 20:26 | 50.00226 | -2.00286 | 10011 ft | 331 kts | 202° |